Weather at Susuman Airport [CLOSED]

Public forecast

Using degrees Celsius for public forecast. Weather courtesy of forecast.io.

Closest aviation weather report (METAR) to Susuman Airport

Closest report is Yakutsk Airport, 510.5 nm (945.4 km) W. Retrieved 2021/06/21 09:30 UTC (0 seconds ago):

UEEE 210930Z 24003MPS 9999 SCT050CB 32/09 Q1000 R23L/09//70 NOSIG RMK QFE741

Closest aviation forecast (TAF) to Susuman Airport

Forecast is more than 12 hours old.

Closest forecast is Seymchan Airport, 117.5 nm (217.7 km) E. Retrieved 2013/05/23 03:00 UTC (8 years ago):

TAF UHMS 230132Z 2303/2309 VRB02MPS 9999 NSC TEMPO 2303/2309 16005MPS